PWSweather.com
Personal Weather Stations
Station Observations
SONYA
Sergiev PosadRU

Sergiev PosadRU

Lat: 56.28148651, Lon: 38.05462646

Elevation: 741

Station Type: Fine offset WH1091

High Low Average
Temperature 76.1°F24.5°C 46.0°F7.8°C 62.0°F16.7°C
Dew Point 60.7°F15.9°C 45.4°F7.4°C 55.0°F12.8°C
Winds 6.9 mph 11.1 kmh Calm Calm 1.0 mph SE1.6 kmh SE
Wind Gusts 12.1 mph19.5 kmh -- 2.0 mph3.2 kmh
Humidity 99% 43% 76%
Pressure 29.72 in1006.4 mb 29.64 in1003.7 mb -
Precipitation 0.46 in11.7 mm - -
Hour Temp Dew Point Humidity Winds Wind Gusts Pressure Precip Precip Rate Daily Precip Total
12:02 AM 49.1°F9.5°C 48.5°F9.2°C 97% Calm Calm -- 29.70 in1005.8 mb 0.00 in0.0 mm 0.00 in0.0 mm 0.00 in0.0 mm
12:07 AM 48.9°F9.4°C 48.5°F9.2°C 98% Calm Calm -- 29.70 in1005.8 mb 0.00 in0.0 mm 0.00 in0.0 mm 0.00 in0.0 mm
12:12 AM 48.9°F9.4°C 48.5°F9.2°C 98% Calm Calm -- 29.70 in1005.8 mb 0.00 in0.0 mm 0.00 in0.0 mm 0.00 in0.0 mm
12:17 AM 48.9°F9.4°C 48.5°F9.2°C 98% Calm Calm -- 29.71 in1006.1 mb 0.00 in0.0 mm 0.00 in0.0 mm 0.00 in0.0 mm
12:22 AM 48.9°F9.4°C 48.5°F9.2°C 98% Calm Calm -- 29.70 in1005.8 mb 0.00 in0.0 mm 0.00 in0.0 mm 0.00 in0.0 mm
12:27 AM 48.9°F9.4°C 48.5°F9.2°C 98% Calm Calm -- 29.70 in1005.8 mb 0.00 in0.0 mm 0.00 in0.0 mm 0.00 in0.0 mm
12:32 AM 48.6°F9.2°C 48.2°F9.0°C 98% Calm Calm -- 29.70 in1005.8 mb 0.00 in0.0 mm 0.00 in0.0 mm 0.00 in0.0 mm
12:37 AM 48.4°F9.1°C 48.0°F8.9°C 98% Calm Calm -- 29.70 in1005.8 mb 0.00 in0.0 mm 0.00 in0.0 mm 0.00 in0.0 mm
12:42 AM 48.4°F9.1°C 48.0°F8.9°C 98% Calm Calm -- 29.70 in1005.8 mb 0.00 in0.0 mm 0.00 in0.0 mm 0.00 in0.0 mm
12:47 AM 48.4°F9.1°C 48.2°F9.0°C 99% Calm Calm -- 29.70 in1005.8 mb 0.00 in0.0 mm 0.00 in0.0 mm 0.00 in0.0 mm
12:52 AM 48.4°F9.1°C 48.2°F9.0°C 99% Calm Calm -- 29.71 in1006.1 mb 0.00 in0.0 mm 0.00 in0.0 mm 0.00 in0.0 mm
12:57 AM 48.4°F9.1°C 48.2°F9.0°C 99% Calm Calm -- 29.70 in1005.8 mb 0.00 in0.0 mm 0.00 in0.0 mm 0.00 in0.0 mm
01:02 AM 48.4°F9.1°C 48.2°F9.0°C 99% Calm Calm -- 29.70 in1005.8 mb 0.00 in0.0 mm 0.00 in0.0 mm 0.00 in0.0 mm
01:07 AM 48.2°F9.0°C 48.0°F8.9°C 99% Calm Calm -- 29.71 in1006.1 mb 0.00 in0.0 mm 0.00 in0.0 mm 0.00 in0.0 mm
01:12 AM 48.0°F8.9°C 47.8°F8.8°C 99% Calm Calm -- 29.70 in1005.8 mb 0.00 in0.0 mm 0.00 in0.0 mm 0.00 in0.0 mm
01:17 AM 47.8°F8.8°C 47.6°F8.7°C 99% Calm Calm -- 29.70 in1005.8 mb 0.00 in0.0 mm 0.00 in0.0 mm 0.00 in0.0 mm
01:22 AM 47.8°F8.8°C 47.6°F8.7°C 99% Calm Calm -- 29.71 in1006.1 mb 0.00 in0.0 mm 0.00 in0.0 mm 0.00 in0.0 mm
01:27 AM 47.8°F8.8°C 47.6°F8.7°C 99% Calm Calm -- 29.70 in1005.8 mb 0.00 in0.0 mm 0.00 in0.0 mm 0.00 in0.0 mm
01:32 AM 47.8°F8.8°C 47.6°F8.7°C 99% Calm Calm -- 29.70 in1005.8 mb 0.00 in0.0 mm 0.00 in0.0 mm 0.00 in0.0 mm
01:37 AM 47.8°F8.8°C 47.6°F8.7°C 99% Calm Calm -- 29.71 in1006.1 mb 0.00 in0.0 mm 0.00 in0.0 mm 0.00 in0.0 mm
01:42 AM 47.5°F8.6°C 47.3°F8.5°C 99% Calm Calm -- 29.70 in1005.8 mb 0.00 in0.0 mm 0.00 in0.0 mm 0.00 in0.0 mm
01:47 AM 47.3°F8.5°C 47.1°F8.4°C 99% Calm Calm -- 29.71 in1006.1 mb 0.00 in0.0 mm 0.00 in0.0 mm 0.00 in0.0 mm
01:52 AM 47.1°F8.4°C 46.9°F8.3°C 99% Calm Calm -- 29.70 in1005.8 mb 0.00 in0.0 mm 0.00 in0.0 mm 0.00 in0.0 mm
01:57 AM 47.1°F8.4°C 46.9°F8.3°C 99% Calm Calm -- 29.70 in1005.8 mb 0.00 in0.0 mm 0.00 in0.0 mm 0.00 in0.0 mm
02:02 AM 46.9°F8.3°C 46.7°F8.2°C 99% Calm Calm -- 29.70 in1005.8 mb 0.00 in0.0 mm 0.00 in0.0 mm 0.00 in0.0 mm
02:07 AM 46.9°F8.3°C 46.7°F8.2°C 99% Calm Calm -- 29.70 in1005.8 mb 0.00 in0.0 mm 0.00 in0.0 mm 0.00 in0.0 mm
02:12 AM 46.9°F8.3°C 46.7°F8.2°C 99% Calm Calm -- 29.70 in1005.8 mb 0.00 in0.0 mm 0.00 in0.0 mm 0.00 in0.0 mm
02:17 AM 46.9°F8.3°C 46.7°F8.2°C 99% Calm Calm -- 29.70 in1005.8 mb 0.00 in0.0 mm 0.00 in0.0 mm 0.00 in0.0 mm
02:22 AM 46.8°F8.2°C 46.6°F8.1°C 99% Calm Calm -- 29.70 in1005.8 mb 0.00 in0.0 mm 0.00 in0.0 mm 0.00 in0.0 mm
02:27 AM 46.8°F8.2°C 46.6°F8.1°C 99% Calm Calm -- 29.70 in1005.8 mb 0.00 in0.0 mm 0.00 in0.0 mm 0.00 in0.0 mm
02:32 AM 46.8°F8.2°C 46.6°F8.1°C 99% Calm Calm -- 29.70 in1005.8 mb 0.00 in0.0 mm 0.00 in0.0 mm 0.00 in0.0 mm
02:37 AM 46.8°F8.2°C 46.6°F8.1°C 99% Calm Calm -- 29.71 in1006.1 mb 0.00 in0.0 mm 0.00 in0.0 mm 0.00 in0.0 mm
02:42 AM 46.6°F8.1°C 46.4°F8.0°C 99% Calm Calm -- 29.70 in1005.8 mb 0.00 in0.0 mm 0.00 in0.0 mm 0.00 in0.0 mm
02:47 AM 46.8°F8.2°C 46.6°F8.1°C 99% Calm Calm -- 29.70 in1005.8 mb 0.00 in0.0 mm 0.00 in0.0 mm 0.00 in0.0 mm
02:52 AM 46.4°F8.0°C 46.2°F7.9°C 99% Calm Calm -- 29.71 in1006.1 mb 0.00 in0.0 mm 0.00 in0.0 mm 0.00 in0.0 mm
02:57 AM 46.2°F7.9°C 45.6°F7.6°C 97% Calm Calm -- 29.70 in1005.8 mb 0.00 in0.0 mm 0.00 in0.0 mm 0.00 in0.0 mm
03:02 AM 46.4°F8.0°C 46.2°F7.9°C 99% Calm Calm -- 29.70 in1005.8 mb 0.00 in0.0 mm 0.00 in0.0 mm 0.00 in0.0 mm
03:07 AM 46.4°F8.0°C 46.2°F7.9°C 99% Calm Calm -- 29.70 in1005.8 mb 0.00 in0.0 mm 0.00 in0.0 mm 0.00 in0.0 mm
03:12 AM 46.4°F8.0°C 46.2°F7.9°C 99% Calm Calm -- 29.70 in1005.8 mb 0.00 in0.0 mm 0.00 in0.0 mm 0.00 in0.0 mm
03:17 AM 46.4°F8.0°C 46.2°F7.9°C 99% Calm Calm -- 29.71 in1006.1 mb 0.00 in0.0 mm 0.00 in0.0 mm 0.00 in0.0 mm
03:22 AM 46.2°F7.9°C 45.6°F7.6°C 97% Calm Calm -- 29.70 in1005.8 mb 0.00 in0.0 mm 0.00 in0.0 mm 0.00 in0.0 mm
03:27 AM 46.0°F7.8°C 45.4°F7.4°C 97% Calm Calm -- 29.70 in1005.8 mb 0.00 in0.0 mm 0.00 in0.0 mm 0.00 in0.0 mm
03:32 AM 46.2°F7.9°C 45.6°F7.6°C 97% Calm Calm -- 29.70 in1005.8 mb 0.00 in0.0 mm 0.00 in0.0 mm 0.00 in0.0 mm
03:37 AM 46.2°F7.9°C 45.6°F7.6°C 97% Calm Calm -- 29.70 in1005.8 mb 0.00 in0.0 mm 0.00 in0.0 mm 0.00 in0.0 mm
03:42 AM 46.4°F8.0°C 46.2°F7.9°C 99% Calm Calm -- 29.70 in1005.8 mb 0.00 in0.0 mm 0.00 in0.0 mm 0.00 in0.0 mm
03:47 AM 46.6°F8.1°C 46.4°F8.0°C 99% Calm Calm -- 29.70 in1005.8 mb 0.00 in0.0 mm 0.00 in0.0 mm 0.00 in0.0 mm
03:52 AM 46.8°F8.2°C 46.6°F8.1°C 99% Calm Calm -- 29.70 in1005.8 mb 0.00 in0.0 mm 0.00 in0.0 mm 0.00 in0.0 mm
03:57 AM 46.8°F8.2°C 46.6°F8.1°C 99% Calm Calm -- 29.70 in1005.8 mb 0.00 in0.0 mm 0.00 in0.0 mm 0.00 in0.0 mm
04:02 AM 47.1°F8.4°C 46.9°F8.3°C 99% Calm Calm -- 29.71 in1006.1 mb 0.00 in0.0 mm 0.00 in0.0 mm 0.00 in0.0 mm
04:07 AM 47.5°F8.6°C 47.3°F8.5°C 99% Calm Calm -- 29.70 in1005.8 mb 0.00 in0.0 mm 0.00 in0.0 mm 0.00 in0.0 mm
04:12 AM 47.5°F8.6°C 47.3°F8.5°C 99% Calm Calm -- 29.70 in1005.8 mb 0.00 in0.0 mm 0.00 in0.0 mm 0.00 in0.0 mm
04:17 AM 47.8°F8.8°C 47.6°F8.7°C 99% Calm Calm -- 29.70 in1005.8 mb 0.00 in0.0 mm 0.00 in0.0 mm 0.00 in0.0 mm
04:22 AM 48.0°F8.9°C 47.8°F8.8°C 99% Calm Calm -- 29.70 in1005.8 mb 0.00 in0.0 mm 0.00 in0.0 mm 0.00 in0.0 mm
04:27 AM 48.4°F9.1°C 48.2°F9.0°C 99% Calm Calm -- 29.70 in1005.8 mb 0.00 in0.0 mm 0.00 in0.0 mm 0.00 in0.0 mm
04:32 AM 48.4°F9.1°C 48.2°F9.0°C 99% Calm Calm -- 29.70 in1005.8 mb 0.00 in0.0 mm 0.00 in0.0 mm 0.00 in0.0 mm
04:37 AM 48.7°F9.3°C 48.5°F9.2°C 99% Calm Calm -- 29.70 in1005.8 mb 0.00 in0.0 mm 0.00 in0.0 mm 0.00 in0.0 mm
04:42 AM 49.1°F9.5°C 48.9°F9.4°C 99% Calm Calm -- 29.71 in1006.1 mb 0.00 in0.0 mm 0.00 in0.0 mm 0.00 in0.0 mm
04:47 AM 49.3°F9.6°C 49.1°F9.5°C 99% Calm Calm -- 29.70 in1005.8 mb 0.00 in0.0 mm 0.00 in0.0 mm 0.00 in0.0 mm
04:52 AM 49.6°F9.8°C 49.4°F9.7°C 99% Calm Calm -- 29.70 in1005.8 mb 0.00 in0.0 mm 0.00 in0.0 mm 0.00 in0.0 mm
04:57 AM 49.8°F9.9°C 49.6°F9.8°C 99% Calm Calm -- 29.71 in1006.1 mb 0.00 in0.0 mm 0.00 in0.0 mm 0.00 in0.0 mm
05:02 AM 50.2°F10.1°C 50.0°F10.0°C 99% Calm Calm -- 29.70 in1005.8 mb 0.00 in0.0 mm 0.00 in0.0 mm 0.00 in0.0 mm
05:07 AM 50.4°F10.2°C 50.2°F10.1°C 99% Calm Calm -- 29.71 in1006.1 mb 0.00 in0.0 mm 0.00 in0.0 mm 0.00 in0.0 mm
05:12 AM 50.7°F10.4°C 50.5°F10.3°C 99% Calm Calm -- 29.71 in1006.1 mb 0.00 in0.0 mm 0.00 in0.0 mm 0.00 in0.0 mm
05:17 AM 51.1°F10.6°C 50.9°F10.5°C 99% Calm Calm -- 29.70 in1005.8 mb 0.00 in0.0 mm 0.00 in0.0 mm 0.00 in0.0 mm
05:22 AM 51.3°F10.7°C 51.1°F10.6°C 99% Calm Calm -- 29.71 in1006.1 mb 0.00 in0.0 mm 0.00 in0.0 mm 0.00 in0.0 mm
05:27 AM 52.9°F11.6°C 52.5°F11.4°C 98% Calm Calm -- 29.71 in1006.1 mb 0.00 in0.0 mm 0.00 in0.0 mm 0.00 in0.0 mm
05:32 AM 53.8°F12.1°C 53.2°F11.8°C 97% Calm Calm -- 29.71 in1006.1 mb 0.00 in0.0 mm 0.00 in0.0 mm 0.00 in0.0 mm
05:37 AM 54.3°F12.4°C 53.7°F12.1°C 97% Calm Calm -- 29.71 in1006.1 mb 0.00 in0.0 mm 0.00 in0.0 mm 0.00 in0.0 mm
05:42 AM 54.9°F12.7°C 54.2°F12.3°C 97% Calm Calm -- 29.71 in1006.1 mb 0.00 in0.0 mm 0.00 in0.0 mm 0.00 in0.0 mm
05:47 AM 55.4°F13.0°C 55.2°F12.9°C 99% Calm Calm -- 29.71 in1006.1 mb 0.00 in0.0 mm 0.00 in0.0 mm 0.00 in0.0 mm
05:52 AM 55.6°F13.1°C 55.4°F13.0°C 99% Calm Calm -- 29.71 in1006.1 mb 0.00 in0.0 mm 0.00 in0.0 mm 0.00 in0.0 mm
05:57 AM 55.6°F13.1°C 55.4°F13.0°C 99% Calm Calm -- 29.71 in1006.1 mb 0.00 in0.0 mm 0.00 in0.0 mm 0.00 in0.0 mm
06:02 AM 56.3°F13.5°C 56.1°F13.4°C 99% Calm Calm -- 29.71 in1006.1 mb 0.00 in0.0 mm 0.00 in0.0 mm 0.00 in0.0 mm
06:07 AM 56.8°F13.8°C 56.6°F13.7°C 99% Calm Calm -- 29.72 in1006.4 mb 0.00 in0.0 mm 0.00 in0.0 mm 0.00 in0.0 mm
06:12 AM 57.6°F14.2°C 57.3°F14.1°C 99% Calm Calm -- 29.71 in1006.1 mb 0.00 in0.0 mm 0.00 in0.0 mm 0.00 in0.0 mm
06:17 AM 58.6°F14.8°C 58.4°F14.7°C 99% Calm Calm -- 29.71 in1006.1 mb 0.00 in0.0 mm 0.00 in0.0 mm 0.00 in0.0 mm
06:22 AM 59.4°F15.2°C 59.1°F15.1°C 99% Calm Calm -- 29.71 in1006.1 mb 0.00 in0.0 mm 0.00 in0.0 mm 0.00 in0.0 mm
06:27 AM 60.4°F15.8°C 60.0°F15.6°C 98% Calm Calm -- 29.71 in1006.1 mb 0.00 in0.0 mm 0.00 in0.0 mm 0.00 in0.0 mm
06:32 AM 61.5°F16.4°C 60.6°F15.9°C 96% Calm Calm -- 29.72 in1006.4 mb 0.00 in0.0 mm 0.00 in0.0 mm 0.00 in0.0 mm
06:37 AM 62.1°F16.7°C 60.7°F15.9°C 94% Calm Calm -- 29.71 in1006.1 mb 0.00 in0.0 mm 0.00 in0.0 mm 0.00 in0.0 mm
06:42 AM 62.6°F17.0°C 59.8°F15.4°C 88% Calm Calm -- 29.71 in1006.1 mb 0.00 in0.0 mm 0.00 in0.0 mm 0.00 in0.0 mm
06:47 AM 63.1°F17.3°C 58.8°F14.9°C 82% 0.7 mph 1.1 kmh 3.1 mph5.0 kmh 29.71 in1006.1 mb 0.00 in0.0 mm 0.00 in0.0 mm 0.00 in0.0 mm
06:52 AM 62.8°F17.1°C 57.4°F14.1°C 78% Calm Calm 0.7 mph1.1 kmh 29.71 in1006.1 mb 0.00 in0.0 mm 0.00 in0.0 mm 0.00 in0.0 mm
06:57 AM 63.5°F17.5°C 57.8°F14.3°C 77% Calm Calm 1.6 mph2.6 kmh 29.72 in1006.4 mb 0.00 in0.0 mm 0.00 in0.0 mm 0.00 in0.0 mm
07:02 AM 64.4°F18.0°C 57.9°F14.4°C 74% 0.7 mph NW1.1 kmh NW 2.2 mph3.5 kmh 29.72 in1006.4 mb 0.00 in0.0 mm 0.00 in0.0 mm 0.00 in0.0 mm
07:07 AM 64.8°F18.2°C 57.6°F14.2°C 72% Calm Calm -- 29.71 in1006.1 mb 0.00 in0.0 mm 0.00 in0.0 mm 0.00 in0.0 mm
07:12 AM 65.8°F18.8°C 58.3°F14.6°C 71% Calm Calm 1.6 mph2.6 kmh 29.71 in1006.1 mb 0.00 in0.0 mm 0.00 in0.0 mm 0.00 in0.0 mm
07:17 AM 67.1°F19.5°C 58.6°F14.8°C 68% 1.6 mph NW2.6 kmh NW 3.1 mph5.0 kmh 29.71 in1006.1 mb 0.00 in0.0 mm 0.00 in0.0 mm 0.00 in0.0 mm
07:22 AM 67.3°F19.6°C 57.5°F14.2°C 64% 1.6 mph 2.6 kmh 2.2 mph3.5 kmh 29.71 in1006.1 mb 0.00 in0.0 mm 0.00 in0.0 mm 0.00 in0.0 mm
07:27 AM 67.1°F19.5°C 56.7°F13.7°C 62% Calm Calm -- 29.71 in1006.1 mb 0.00 in0.0 mm 0.00 in0.0 mm 0.00 in0.0 mm
07:32 AM 68.0°F20.0°C 57.5°F14.2°C 62% Calm Calm -- 29.71 in1006.1 mb 0.00 in0.0 mm 0.00 in0.0 mm 0.00 in0.0 mm
07:37 AM 68.5°F20.3°C 57.6°F14.2°C 61% Calm Calm 1.6 mph2.6 kmh 29.72 in1006.4 mb 0.00 in0.0 mm 0.00 in0.0 mm 0.00 in0.0 mm
07:42 AM 68.5°F20.3°C 57.3°F14.1°C 60% Calm Calm -- 29.71 in1006.1 mb 0.00 in0.0 mm 0.00 in0.0 mm 0.00 in0.0 mm
07:47 AM 68.5°F20.3°C 57.6°F14.2°C 61% Calm Calm 0.7 mph1.1 kmh 29.71 in1006.1 mb 0.00 in0.0 mm 0.00 in0.0 mm 0.00 in0.0 mm
07:52 AM 68.5°F20.3°C 56.2°F13.4°C 57% 0.7 mph 1.1 kmh 1.6 mph2.6 kmh 29.71 in1006.1 mb 0.00 in0.0 mm 0.00 in0.0 mm 0.00 in0.0 mm
07:57 AM 68.5°F20.3°C 57.3°F14.1°C 60% 0.7 mph SW1.1 kmh SW 2.2 mph3.5 kmh 29.71 in1006.1 mb 0.00 in0.0 mm 0.00 in0.0 mm 0.00 in0.0 mm
08:02 AM 69.3°F20.7°C 57.6°F14.2°C 59% 1.6 mph NW2.6 kmh NW 3.1 mph5.0 kmh 29.72 in1006.4 mb 0.00 in0.0 mm 0.00 in0.0 mm 0.00 in0.0 mm
08:07 AM 69.1°F20.6°C 57.1°F13.9°C 58% 1.6 mph 2.6 kmh 3.1 mph5.0 kmh 29.71 in1006.1 mb 0.00 in0.0 mm 0.00 in0.0 mm 0.00 in0.0 mm
08:12 AM 68.2°F20.1°C 55.5°F13.1°C 56% 1.6 mph S2.6 kmh S 3.1 mph5.0 kmh 29.72 in1006.4 mb 0.00 in0.0 mm 0.00 in0.0 mm 0.00 in0.0 mm
08:17 AM 68.4°F20.2°C 55.3°F12.9°C 55% Calm Calm -- 29.72 in1006.4 mb 0.00 in0.0 mm 0.00 in0.0 mm 0.00 in0.0 mm
08:22 AM 68.5°F20.3°C 56.6°F13.7°C 58% 0.7 mph 1.1 kmh 2.2 mph3.5 kmh 29.72 in1006.4 mb 0.00 in0.0 mm 0.00 in0.0 mm 0.00 in0.0 mm
08:27 AM 66.9°F19.4°C 55.4°F13.0°C 59% Calm Calm 0.7 mph1.1 kmh 29.72 in1006.4 mb 0.00 in0.0 mm 0.00 in0.0 mm 0.00 in0.0 mm
08:32 AM 66.2°F19.0°C 55.5°F13.1°C 61% 0.7 mph NE1.1 kmh NE 3.8 mph6.1 kmh 29.71 in1006.1 mb 0.00 in0.0 mm 0.00 in0.0 mm 0.00 in0.0 mm
08:37 AM 66.9°F19.4°C 56.1°F13.4°C 61% 0.7 mph 1.1 kmh 2.2 mph3.5 kmh 29.72 in1006.4 mb 0.00 in0.0 mm 0.00 in0.0 mm 0.00 in0.0 mm
08:42 AM 68.5°F20.3°C 57.3°F14.1°C 60% 0.7 mph ENE1.1 kmh ENE 1.6 mph2.6 kmh 29.71 in1006.1 mb 0.00 in0.0 mm 0.00 in0.0 mm 0.00 in0.0 mm
08:47 AM 69.6°F20.9°C 56.8°F13.8°C 56% 0.7 mph NE1.1 kmh NE 1.6 mph2.6 kmh 29.72 in1006.4 mb 0.00 in0.0 mm 0.00 in0.0 mm 0.00 in0.0 mm
08:52 AM 69.4°F20.8°C 56.3°F13.5°C 55% 0.7 mph NE1.1 kmh NE 2.2 mph3.5 kmh 29.71 in1006.1 mb 0.00 in0.0 mm 0.00 in0.0 mm 0.00 in0.0 mm
08:57 AM 68.9°F20.5°C 56.2°F13.4°C 56% 1.6 mph NW2.6 kmh NW 3.1 mph5.0 kmh 29.71 in1006.1 mb 0.00 in0.0 mm 0.00 in0.0 mm 0.00 in0.0 mm
09:02 AM 68.9°F20.5°C 55.8°F13.2°C 55% Calm Calm 1.6 mph2.6 kmh 29.71 in1006.1 mb 0.00 in0.0 mm 0.00 in0.0 mm 0.00 in0.0 mm
09:07 AM 70.7°F21.5°C 57.8°F14.3°C 56% 1.6 mph 2.6 kmh 3.1 mph5.0 kmh 29.71 in1006.1 mb 0.00 in0.0 mm 0.00 in0.0 mm 0.00 in0.0 mm
09:12 AM 71.6°F22.0°C 57.9°F14.4°C 54% 1.6 mph E2.6 kmh E 3.8 mph6.1 kmh 29.71 in1006.1 mb 0.00 in0.0 mm 0.00 in0.0 mm 0.00 in0.0 mm
09:17 AM 72.5°F22.5°C 57.5°F14.2°C 51% 2.2 mph S3.5 kmh S 3.8 mph6.1 kmh 29.72 in1006.4 mb 0.00 in0.0 mm 0.00 in0.0 mm 0.00 in0.0 mm
09:22 AM 71.6°F22.0°C 56.7°F13.7°C 51% Calm Calm 0.7 mph1.1 kmh 29.71 in1006.1 mb 0.00 in0.0 mm 0.00 in0.0 mm 0.00 in0.0 mm
09:27 AM 73.2°F22.9°C 58.1°F14.5°C 51% 3.1 mph NE5.0 kmh NE 4.5 mph7.2 kmh 29.71 in1006.1 mb 0.00 in0.0 mm 0.00 in0.0 mm 0.00 in0.0 mm
09:32 AM 73.6°F23.1°C 56.7°F13.7°C 47% 0.7 mph W1.1 kmh W 2.2 mph3.5 kmh 29.71 in1006.1 mb 0.00 in0.0 mm 0.00 in0.0 mm 0.00 in0.0 mm
09:37 AM 73.0°F22.8°C 54.9°F12.7°C 44% 1.6 mph 2.6 kmh 3.1 mph5.0 kmh 29.71 in1006.1 mb 0.00 in0.0 mm 0.00 in0.0 mm 0.00 in0.0 mm
09:42 AM 73.4°F23.0°C 56.1°F13.4°C 46% 2.2 mph 3.5 kmh 4.5 mph7.2 kmh 29.71 in1006.1 mb 0.00 in0.0 mm 0.00 in0.0 mm 0.00 in0.0 mm
09:47 AM 74.1°F23.4°C 56.3°F13.5°C 45% 1.6 mph NE2.6 kmh NE 3.8 mph6.1 kmh 29.71 in1006.1 mb 0.00 in0.0 mm 0.00 in0.0 mm 0.00 in0.0 mm
09:52 AM 72.7°F22.6°C 54.1°F12.3°C 43% 4.5 mph 7.2 kmh 6.0 mph9.7 kmh 29.71 in1006.1 mb 0.00 in0.0 mm 0.00 in0.0 mm 0.00 in0.0 mm
09:57 AM 71.1°F21.7°C 53.1°F11.7°C 44% 2.2 mph E3.5 kmh E 5.4 mph8.7 kmh 29.71 in1006.1 mb 0.00 in0.0 mm 0.00 in0.0 mm 0.00 in0.0 mm
10:02 AM 71.6°F22.0°C 55.8°F13.2°C 49% 0.7 mph 1.1 kmh 3.1 mph5.0 kmh 29.71 in1006.1 mb 0.00 in0.0 mm 0.00 in0.0 mm 0.00 in0.0 mm
10:07 AM 73.0°F22.8°C 55.3°F12.9°C 45% 2.2 mph SE3.5 kmh SE 4.5 mph7.2 kmh 29.71 in1006.1 mb 0.00 in0.0 mm 0.00 in0.0 mm 0.00 in0.0 mm
10:12 AM 72.3°F22.4°C 54.7°F12.6°C 45% 1.6 mph E2.6 kmh E 3.8 mph6.1 kmh 29.71 in1006.1 mb 0.00 in0.0 mm 0.00 in0.0 mm 0.00 in0.0 mm
10:17 AM 72.1°F22.3°C 55.0°F12.8°C 46% 1.6 mph E2.6 kmh E 3.8 mph6.1 kmh 29.71 in1006.1 mb 0.00 in0.0 mm 0.00 in0.0 mm 0.00 in0.0 mm
10:22 AM 71.2°F21.8°C 55.5°F13.1°C 49% 2.2 mph NE3.5 kmh NE 3.1 mph5.0 kmh 29.70 in1005.8 mb 0.00 in0.0 mm 0.00 in0.0 mm 0.00 in0.0 mm
10:27 AM 71.1°F21.7°C 56.2°F13.4°C 51% 1.6 mph SE2.6 kmh SE 3.1 mph5.0 kmh 29.70 in1005.8 mb 0.00 in0.0 mm 0.00 in0.0 mm 0.00 in0.0 mm
10:32 AM 71.4°F21.9°C 56.5°F13.6°C 51% 3.8 mph NE6.1 kmh NE 5.4 mph8.7 kmh 29.70 in1005.8 mb 0.00 in0.0 mm 0.00 in0.0 mm 0.00 in0.0 mm
10:37 AM 70.5°F21.4°C 54.9°F12.7°C 49% 0.7 mph NE1.1 kmh NE 1.6 mph2.6 kmh 29.70 in1005.8 mb 0.00 in0.0 mm 0.00 in0.0 mm 0.00 in0.0 mm
10:42 AM 70.2°F21.2°C 54.9°F12.7°C 50% 2.2 mph NW3.5 kmh NW 3.8 mph6.1 kmh 29.70 in1005.8 mb 0.00 in0.0 mm 0.00 in0.0 mm 0.00 in0.0 mm
10:47 AM 69.8°F21.0°C 54.6°F12.6°C 50% 3.1 mph E5.0 kmh E 4.5 mph7.2 kmh 29.70 in1005.8 mb 0.00 in0.0 mm 0.00 in0.0 mm 0.00 in0.0 mm
10:52 AM 69.6°F20.9°C 55.3°F12.9°C 52% Calm Calm -- 29.70 in1005.8 mb 0.00 in0.0 mm 0.00 in0.0 mm 0.00 in0.0 mm
10:57 AM 71.4°F21.9°C 56.9°F13.8°C 52% Calm Calm 0.7 mph1.1 kmh 29.70 in1005.8 mb 0.00 in0.0 mm 0.00 in0.0 mm 0.00 in0.0 mm
11:02 AM 72.5°F22.5°C 56.6°F13.7°C 49% 3.1 mph NE5.0 kmh NE 3.8 mph6.1 kmh 29.70 in1005.8 mb 0.00 in0.0 mm 0.00 in0.0 mm 0.00 in0.0 mm
11:07 AM 74.3°F23.5°C 56.9°F13.8°C 46% 3.1 mph NE5.0 kmh NE 5.4 mph8.7 kmh 29.70 in1005.8 mb 0.00 in0.0 mm 0.00 in0.0 mm 0.00 in0.0 mm
11:12 AM 75.4°F24.1°C 57.9°F14.4°C 46% 1.6 mph SE2.6 kmh SE 3.8 mph6.1 kmh 29.71 in1006.1 mb 0.00 in0.0 mm 0.00 in0.0 mm 0.00 in0.0 mm
11:17 AM 76.1°F24.5°C 57.6°F14.2°C 44% 0.7 mph 1.1 kmh 2.2 mph3.5 kmh 29.70 in1005.8 mb 0.00 in0.0 mm 0.00 in0.0 mm 0.00 in0.0 mm
11:22 AM 73.6°F23.1°C 55.3°F12.9°C 44% 3.1 mph NE5.0 kmh NE 5.4 mph8.7 kmh 29.70 in1005.8 mb 0.00 in0.0 mm 0.00 in0.0 mm 0.00 in0.0 mm
11:27 AM 70.0°F21.1°C 54.8°F12.7°C 50% 3.1 mph NE5.0 kmh NE 3.8 mph6.1 kmh 29.71 in1006.1 mb 0.00 in0.0 mm 0.00 in0.0 mm 0.00 in0.0 mm
11:32 AM 69.6°F20.9°C 55.7°F13.2°C 53% 3.1 mph NE5.0 kmh NE 5.4 mph8.7 kmh 29.70 in1005.8 mb 0.00 in0.0 mm 0.00 in0.0 mm 0.00 in0.0 mm
11:37 AM 69.1°F20.6°C 54.8°F12.7°C 52% 1.6 mph NE2.6 kmh NE 4.5 mph7.2 kmh 29.71 in1006.1 mb 0.00 in0.0 mm 0.00 in0.0 mm 0.00 in0.0 mm
11:42 AM 70.7°F21.5°C 56.3°F13.5°C 52% 1.6 mph SE2.6 kmh SE 2.2 mph3.5 kmh 29.70 in1005.8 mb 0.00 in0.0 mm 0.00 in0.0 mm 0.00 in0.0 mm
11:47 AM 72.3°F22.4°C 56.9°F13.8°C 50% 1.6 mph 2.6 kmh 2.2 mph3.5 kmh 29.70 in1005.8 mb 0.00 in0.0 mm 0.00 in0.0 mm 0.00 in0.0 mm
11:52 AM 72.3°F22.4°C 56.5°F13.6°C 49% 1.6 mph 2.6 kmh 3.1 mph5.0 kmh 29.70 in1005.8 mb 0.00 in0.0 mm 0.00 in0.0 mm 0.00 in0.0 mm
11:57 AM 73.4°F23.0°C 57.4°F14.1°C 49% 5.4 mph 8.7 kmh 7.6 mph12.2 kmh 29.70 in1005.8 mb 0.00 in0.0 mm 0.00 in0.0 mm 0.00 in0.0 mm
12:02 PM 72.5°F22.5°C 56.2°F13.4°C 48% 2.2 mph NW3.5 kmh NW 3.8 mph6.1 kmh 29.70 in1005.8 mb 0.00 in0.0 mm 0.00 in0.0 mm 0.00 in0.0 mm
12:07 PM 73.0°F22.8°C 57.5°F14.2°C 50% 2.2 mph 3.5 kmh 6.0 mph9.7 kmh 29.70 in1005.8 mb 0.00 in0.0 mm 0.00 in0.0 mm 0.00 in0.0 mm
12:12 PM 73.8°F23.2°C 59.0°F15.0°C 52% 3.1 mph 5.0 kmh 4.5 mph7.2 kmh 29.70 in1005.8 mb 0.00 in0.0 mm 0.00 in0.0 mm 0.00 in0.0 mm
12:17 PM 74.5°F23.6°C 57.1°F13.9°C 46% 4.5 mph NE7.2 kmh NE 6.0 mph9.7 kmh 29.70 in1005.8 mb 0.00 in0.0 mm 0.00 in0.0 mm 0.00 in0.0 mm
12:22 PM 73.2°F22.9°C 56.8°F13.8°C 48% 3.1 mph 5.0 kmh 5.4 mph8.7 kmh 29.69 in1005.4 mb 0.00 in0.0 mm 0.00 in0.0 mm 0.00 in0.0 mm
12:27 PM 72.5°F22.5°C 56.6°F13.7°C 49% 3.8 mph NE6.1 kmh NE 4.5 mph7.2 kmh 29.69 in1005.4 mb 0.00 in0.0 mm 0.00 in0.0 mm 0.00 in0.0 mm
12:32 PM 73.0°F22.8°C 58.0°F14.4°C 51% 1.6 mph NW2.6 kmh NW 2.2 mph3.5 kmh 29.68 in1005.1 mb 0.00 in0.0 mm 0.00 in0.0 mm 0.00 in0.0 mm
12:37 PM 73.9°F23.3°C 57.9°F14.4°C 49% 3.1 mph NNE5.0 kmh NNE 6.9 mph11.1 kmh 29.69 in1005.4 mb 0.00 in0.0 mm 0.00 in0.0 mm 0.00 in0.0 mm
12:42 PM 73.2°F22.9°C 57.3°F14.1°C 49% 3.8 mph 6.1 kmh 5.4 mph8.7 kmh 29.69 in1005.4 mb 0.00 in0.0 mm 0.00 in0.0 mm 0.00 in0.0 mm
12:47 PM 72.1°F22.3°C 56.7°F13.7°C 50% 0.7 mph NW1.1 kmh NW 3.8 mph6.1 kmh 29.69 in1005.4 mb 0.00 in0.0 mm 0.00 in0.0 mm 0.00 in0.0 mm
12:52 PM 73.8°F23.2°C 58.6°F14.8°C 51% 2.2 mph NE3.5 kmh NE 4.5 mph7.2 kmh 29.68 in1005.1 mb 0.00 in0.0 mm 0.00 in0.0 mm 0.00 in0.0 mm
12:57 PM 74.5°F23.6°C 59.7°F15.4°C 52% 2.2 mph NW3.5 kmh NW 3.8 mph6.1 kmh 29.68 in1005.1 mb 0.00 in0.0 mm 0.00 in0.0 mm 0.00 in0.0 mm
01:02 PM 75.9°F24.4°C 59.3°F15.2°C 48% 2.2 mph 3.5 kmh 5.4 mph8.7 kmh 29.68 in1005.1 mb 0.00 in0.0 mm 0.00 in0.0 mm 0.00 in0.0 mm
01:07 PM 76.1°F24.5°C 58.0°F14.4°C 45% 6.0 mph E9.7 kmh E 7.6 mph12.2 kmh 29.69 in1005.4 mb 0.00 in0.0 mm 0.00 in0.0 mm 0.00 in0.0 mm
01:12 PM 73.9°F23.3°C 57.0°F13.9°C 47% 3.8 mph 6.1 kmh 6.9 mph11.1 kmh 29.69 in1005.4 mb 0.00 in0.0 mm 0.00 in0.0 mm 0.00 in0.0 mm
01:17 PM 73.2°F22.9°C 57.3°F14.1°C 49% 3.1 mph 5.0 kmh 5.4 mph8.7 kmh 29.68 in1005.1 mb 0.00 in0.0 mm 0.00 in0.0 mm 0.00 in0.0 mm
01:22 PM 72.5°F22.5°C 56.6°F13.7°C 49% 3.1 mph ENE5.0 kmh ENE 4.5 mph7.2 kmh 29.68 in1005.1 mb 0.00 in0.0 mm 0.00 in0.0 mm 0.00 in0.0 mm
01:27 PM 72.0°F22.2°C 56.6°F13.7°C 50% 1.6 mph 2.6 kmh 4.5 mph7.2 kmh 29.68 in1005.1 mb 0.00 in0.0 mm 0.00 in0.0 mm 0.00 in0.0 mm
01:32 PM 71.8°F22.1°C 57.2°F14.0°C 52% 3.1 mph NW5.0 kmh NW 5.4 mph8.7 kmh 29.68 in1005.1 mb 0.00 in0.0 mm 0.00 in0.0 mm 0.00 in0.0 mm
01:37 PM 70.9°F21.6°C 56.0°F13.3°C 51% 1.6 mph 2.6 kmh 3.1 mph5.0 kmh 29.68 in1005.1 mb 0.00 in0.0 mm 0.00 in0.0 mm 0.00 in0.0 mm
01:42 PM 70.9°F21.6°C 56.8°F13.8°C 53% 1.6 mph 2.6 kmh 2.2 mph3.5 kmh 29.68 in1005.1 mb 0.00 in0.0 mm 0.00 in0.0 mm 0.00 in0.0 mm
01:47 PM 71.4°F21.9°C 57.3°F14.1°C 53% 3.8 mph W6.1 kmh W 5.4 mph8.7 kmh 29.68 in1005.1 mb 0.00 in0.0 mm 0.00 in0.0 mm 0.00 in0.0 mm
01:52 PM 71.6°F22.0°C 57.9°F14.4°C 54% 4.5 mph 7.2 kmh 5.4 mph8.7 kmh 29.68 in1005.1 mb 0.00 in0.0 mm 0.00 in0.0 mm 0.00 in0.0 mm
01:57 PM 71.1°F21.7°C 57.4°F14.1°C 54% 1.6 mph 2.6 kmh 3.1 mph5.0 kmh 29.68 in1005.1 mb 0.00 in0.0 mm 0.00 in0.0 mm 0.00 in0.0 mm
02:02 PM 70.9°F21.6°C 57.6°F14.2°C 55% 3.8 mph WNW6.1 kmh WNW 4.5 mph7.2 kmh 29.68 in1005.1 mb 0.00 in0.0 mm 0.00 in0.0 mm 0.00 in0.0 mm
02:07 PM 70.5°F21.4°C 57.7°F14.3°C 56% Calm Calm 1.6 mph2.6 kmh 29.67 in1004.7 mb 0.00 in0.0 mm 0.00 in0.0 mm 0.00 in0.0 mm
02:12 PM 70.7°F21.5°C 58.6°F14.8°C 58% Calm Calm -- 29.67 in1004.7 mb 0.00 in0.0 mm 0.00 in0.0 mm 0.00 in0.0 mm
02:17 PM 70.7°F21.5°C 58.2°F14.6°C 57% 0.7 mph NE1.1 kmh NE 3.1 mph5.0 kmh 29.68 in1005.1 mb 0.00 in0.0 mm 0.00 in0.0 mm 0.00 in0.0 mm
02:22 PM 70.7°F21.5°C 58.2°F14.6°C 57% 2.2 mph NE3.5 kmh NE 4.5 mph7.2 kmh 29.68 in1005.1 mb 0.00 in0.0 mm 0.00 in0.0 mm 0.00 in0.0 mm
02:27 PM 70.3°F21.3°C 58.6°F14.8°C 59% 2.2 mph NE3.5 kmh NE 5.4 mph8.7 kmh 29.68 in1005.1 mb 0.00 in0.0 mm 0.00 in0.0 mm 0.00 in0.0 mm
02:32 PM 70.0°F21.1°C 58.6°F14.8°C 60% 0.7 mph NE1.1 kmh NE 1.6 mph2.6 kmh 29.67 in1004.7 mb 0.00 in0.0 mm 0.00 in0.0 mm 0.00 in0.0 mm
02:37 PM 70.3°F21.3°C 59.3°F15.2°C 61% 2.2 mph 3.5 kmh 3.8 mph6.1 kmh 29.68 in1005.1 mb 0.00 in0.0 mm 0.00 in0.0 mm 0.00 in0.0 mm
02:42 PM 70.3°F21.3°C 59.0°F15.0°C 60% 3.8 mph E6.1 kmh E 7.6 mph12.2 kmh 29.67 in1004.7 mb 0.00 in0.0 mm 0.00 in0.0 mm 0.00 in0.0 mm
02:47 PM 71.2°F21.8°C 59.8°F15.4°C 60% 6.9 mph NE11.1 kmh NE 12.1 mph19.5 kmh 29.67 in1004.7 mb 0.00 in0.0 mm 0.00 in0.0 mm 0.00 in0.0 mm
02:52 PM 70.2°F21.2°C 58.4°F14.7°C 59% 4.5 mph 7.2 kmh 7.6 mph12.2 kmh 29.68 in1005.1 mb 0.00 in0.0 mm 0.00 in0.0 mm 0.00 in0.0 mm
02:57 PM 69.6°F20.9°C 58.3°F14.6°C 60% 2.2 mph SE3.5 kmh SE 3.1 mph5.0 kmh 29.67 in1004.7 mb 0.00 in0.0 mm 0.00 in0.0 mm 0.00 in0.0 mm
03:02 PM 69.1°F20.6°C 58.2°F14.6°C 61% 3.1 mph NE5.0 kmh NE 4.5 mph7.2 kmh 29.67 in1004.7 mb 0.00 in0.0 mm 0.00 in0.0 mm 0.00 in0.0 mm
03:07 PM 68.5°F20.3°C 58.0°F14.4°C 62% 3.8 mph 6.1 kmh 7.6 mph12.2 kmh 29.67 in1004.7 mb 0.00 in0.0 mm 0.00 in0.0 mm 0.00 in0.0 mm
03:12 PM 69.1°F20.6°C 58.5°F14.7°C 62% 4.5 mph NE7.2 kmh NE 7.6 mph12.2 kmh 29.67 in1004.7 mb 0.00 in0.0 mm 0.00 in0.0 mm 0.00 in0.0 mm
03:17 PM 69.4°F20.8°C 58.8°F14.9°C 62% 3.8 mph NE6.1 kmh NE 6.0 mph9.7 kmh 29.67 in1004.7 mb 0.00 in0.0 mm 0.00 in0.0 mm 0.00 in0.0 mm
03:22 PM 70.5°F21.4°C 59.1°F15.1°C 60% 2.2 mph NW3.5 kmh NW 4.5 mph7.2 kmh 29.66 in1004.4 mb 0.00 in0.0 mm 0.00 in0.0 mm 0.00 in0.0 mm
03:27 PM 72.3°F22.4°C 59.3°F15.2°C 56% 3.1 mph S5.0 kmh S 5.4 mph8.7 kmh 29.66 in1004.4 mb 0.00 in0.0 mm 0.00 in0.0 mm 0.00 in0.0 mm
03:32 PM 72.7°F22.6°C 58.9°F14.9°C 54% 5.4 mph 8.7 kmh 8.3 mph13.4 kmh 29.66 in1004.4 mb 0.00 in0.0 mm 0.00 in0.0 mm 0.00 in0.0 mm
03:37 PM 71.8°F22.1°C 58.0°F14.4°C 54% 3.1 mph SE5.0 kmh SE 4.5 mph7.2 kmh 29.66 in1004.4 mb 0.00 in0.0 mm 0.00 in0.0 mm 0.00 in0.0 mm
03:42 PM 71.6°F22.0°C 57.5°F14.2°C 53% 2.2 mph E3.5 kmh E 5.4 mph8.7 kmh 29.65 in1004.1 mb 0.00 in0.0 mm 0.00 in0.0 mm 0.00 in0.0 mm
03:47 PM 71.2°F21.8°C 57.5°F14.2°C 54% 5.4 mph NE8.7 kmh NE 7.6 mph12.2 kmh 29.66 in1004.4 mb 0.00 in0.0 mm 0.00 in0.0 mm 0.00 in0.0 mm
03:52 PM 70.9°F21.6°C 58.0°F14.4°C 56% 2.2 mph NE3.5 kmh NE 3.8 mph6.1 kmh 29.65 in1004.1 mb 0.00 in0.0 mm 0.00 in0.0 mm 0.00 in0.0 mm
03:57 PM 70.7°F21.5°C 58.2°F14.6°C 57% 3.1 mph NE5.0 kmh NE 4.5 mph7.2 kmh 29.66 in1004.4 mb 0.00 in0.0 mm 0.00 in0.0 mm 0.00 in0.0 mm
04:02 PM 70.9°F21.6°C 58.7°F14.8°C 58% 0.7 mph 1.1 kmh 2.2 mph3.5 kmh 29.66 in1004.4 mb 0.00 in0.0 mm 0.00 in0.0 mm 0.00 in0.0 mm
04:07 PM 71.1°F21.7°C 59.3°F15.2°C 59% 1.6 mph NE2.6 kmh NE 2.2 mph3.5 kmh 29.65 in1004.1 mb 0.00 in0.0 mm 0.00 in0.0 mm 0.00 in0.0 mm
04:12 PM 70.9°F21.6°C 58.7°F14.8°C 58% 3.1 mph NE5.0 kmh NE 4.5 mph7.2 kmh 29.65 in1004.1 mb 0.00 in0.0 mm 0.00 in0.0 mm 0.00 in0.0 mm
04:17 PM 70.3°F21.3°C 57.5°F14.2°C 56% 2.2 mph E3.5 kmh E 3.8 mph6.1 kmh 29.65 in1004.1 mb 0.00 in0.0 mm 0.00 in0.0 mm 0.00 in0.0 mm
04:22 PM 70.3°F21.3°C 58.2°F14.6°C 58% 0.7 mph 1.1 kmh 1.6 mph2.6 kmh 29.65 in1004.1 mb 0.00 in0.0 mm 0.00 in0.0 mm 0.00 in0.0 mm
04:27 PM 70.9°F21.6°C 59.1°F15.1°C 59% Calm Calm 0.7 mph1.1 kmh 29.65 in1004.1 mb 0.00 in0.0 mm 0.00 in0.0 mm 0.00 in0.0 mm
04:32 PM 71.8°F22.1°C 59.6°F15.3°C 58% 0.7 mph E1.1 kmh E 3.1 mph5.0 kmh 29.65 in1004.1 mb 0.00 in0.0 mm 0.00 in0.0 mm 0.00 in0.0 mm
04:37 PM 71.8°F22.1°C 58.4°F14.7°C 55% 0.7 mph 1.1 kmh 1.6 mph2.6 kmh 29.65 in1004.1 mb 0.00 in0.0 mm 0.00 in0.0 mm 0.00 in0.0 mm
04:42 PM 72.0°F22.2°C 58.2°F14.6°C 54% 0.7 mph NE1.1 kmh NE 2.2 mph3.5 kmh 29.65 in1004.1 mb 0.00 in0.0 mm 0.00 in0.0 mm 0.00 in0.0 mm
04:47 PM 71.8°F22.1°C 58.0°F14.4°C 54% 0.7 mph NE1.1 kmh NE 2.2 mph3.5 kmh 29.65 in1004.1 mb 0.00 in0.0 mm 0.00 in0.0 mm 0.00 in0.0 mm
04:52 PM 72.3°F22.4°C 58.9°F14.9°C 55% Calm Calm 1.6 mph2.6 kmh 29.65 in1004.1 mb 0.00 in0.0 mm 0.00 in0.0 mm 0.00 in0.0 mm
04:57 PM 73.0°F22.8°C 58.8°F14.9°C 53% 2.2 mph NE3.5 kmh NE 4.5 mph7.2 kmh 29.65 in1004.1 mb 0.00 in0.0 mm 0.00 in0.0 mm 0.00 in0.0 mm
05:02 PM 73.2°F22.9°C 59.0°F15.0°C 53% Calm Calm 0.7 mph1.1 kmh 29.65 in1004.1 mb 0.00 in0.0 mm 0.00 in0.0 mm 0.00 in0.0 mm
05:07 PM 73.8°F23.2°C 59.0°F15.0°C 52% 2.2 mph NE3.5 kmh NE 3.8 mph6.1 kmh 29.65 in1004.1 mb 0.00 in0.0 mm 0.00 in0.0 mm 0.00 in0.0 mm
05:12 PM 72.3°F22.4°C 58.1°F14.5°C 53% 1.6 mph NE2.6 kmh NE 3.1 mph5.0 kmh 29.65 in1004.1 mb 0.00 in0.0 mm 0.00 in0.0 mm 0.00 in0.0 mm
05:17 PM 72.0°F22.2°C 58.2°F14.6°C 54% 0.7 mph NE1.1 kmh NE 1.6 mph2.6 kmh 29.65 in1004.1 mb 0.00 in0.0 mm 0.00 in0.0 mm 0.00 in0.0 mm
05:22 PM 71.8°F22.1°C 58.4°F14.7°C 55% 1.6 mph E2.6 kmh E 3.1 mph5.0 kmh 29.65 in1004.1 mb 0.00 in0.0 mm 0.00 in0.0 mm 0.00 in0.0 mm
05:27 PM 71.2°F21.8°C 58.3°F14.6°C 56% Calm Calm 0.7 mph1.1 kmh 29.65 in1004.1 mb 0.00 in0.0 mm 0.00 in0.0 mm 0.00 in0.0 mm
05:32 PM 70.5°F21.4°C 58.0°F14.4°C 57% 2.2 mph NE3.5 kmh NE 4.5 mph7.2 kmh 29.65 in1004.1 mb 0.00 in0.0 mm 0.00 in0.0 mm 0.00 in0.0 mm
05:37 PM 70.2°F21.2°C 58.4°F14.7°C 59% 1.6 mph NW2.6 kmh NW 3.1 mph5.0 kmh 29.65 in1004.1 mb 0.00 in0.0 mm 0.00 in0.0 mm 0.00 in0.0 mm
05:42 PM 69.6°F20.9°C 58.3°F14.6°C 60% Calm Calm 1.6 mph2.6 kmh 29.65 in1004.1 mb 0.00 in0.0 mm 0.00 in0.0 mm 0.00 in0.0 mm
05:47 PM 69.3°F20.7°C 58.0°F14.4°C 60% 1.6 mph NE2.6 kmh NE 3.1 mph5.0 kmh 29.65 in1004.1 mb 0.00 in0.0 mm 0.00 in0.0 mm 0.00 in0.0 mm
05:52 PM 69.1°F20.6°C 57.8°F14.3°C 60% 0.7 mph NE1.1 kmh NE 1.6 mph2.6 kmh 29.65 in1004.1 mb 0.00 in0.0 mm 0.00 in0.0 mm 0.00 in0.0 mm
05:57 PM 69.1°F20.6°C 58.2°F14.6°C 61% 0.7 mph NE1.1 kmh NE 1.6 mph2.6 kmh 29.65 in1004.1 mb 0.00 in0.0 mm 0.00 in0.0 mm 0.00 in0.0 mm
06:02 PM 68.7°F20.4°C 57.8°F14.3°C 61% 1.6 mph 2.6 kmh 2.2 mph3.5 kmh 29.65 in1004.1 mb 0.00 in0.0 mm 0.00 in0.0 mm 0.00 in0.0 mm
06:07 PM 68.5°F20.3°C 57.6°F14.2°C 61% Calm Calm 1.6 mph2.6 kmh 29.65 in1004.1 mb 0.00 in0.0 mm 0.00 in0.0 mm 0.00 in0.0 mm
06:12 PM 68.4°F20.2°C 57.5°F14.2°C 61% Calm Calm 0.7 mph1.1 kmh 29.65 in1004.1 mb 0.00 in0.0 mm 0.00 in0.0 mm 0.00 in0.0 mm
06:17 PM 68.4°F20.2°C 57.8°F14.3°C 62% Calm Calm 0.7 mph1.1 kmh 29.65 in1004.1 mb 0.00 in0.0 mm 0.00 in0.0 mm 0.00 in0.0 mm
06:22 PM 68.0°F20.0°C 57.5°F14.2°C 62% Calm Calm -- 29.65 in1004.1 mb 0.00 in0.0 mm 0.00 in0.0 mm 0.00 in0.0 mm
06:27 PM 67.8°F19.9°C 58.0°F14.4°C 64% Calm Calm -- 29.65 in1004.1 mb 0.00 in0.0 mm 0.00 in0.0 mm 0.00 in0.0 mm
06:32 PM 67.6°F19.8°C 58.2°F14.6°C 65% Calm Calm -- 29.65 in1004.1 mb 0.00 in0.0 mm 0.00 in0.0 mm 0.00 in0.0 mm
06:37 PM 67.5°F19.7°C 58.0°F14.4°C 65% Calm Calm -- 29.65 in1004.1 mb 0.00 in0.0 mm 0.00 in0.0 mm 0.00 in0.0 mm
06:42 PM 67.3°F19.6°C 58.1°F14.5°C 66% Calm Calm -- 29.66 in1004.4 mb 0.00 in0.0 mm 0.00 in0.0 mm 0.00 in0.0 mm
06:47 PM 66.9°F19.4°C 58.1°F14.5°C 67% Calm Calm -- 29.65 in1004.1 mb 0.00 in0.0 mm 0.00 in0.0 mm 0.00 in0.0 mm
06:52 PM 66.6°F19.2°C 58.1°F14.5°C 68% Calm Calm -- 29.65 in1004.1 mb 0.00 in0.0 mm 0.00 in0.0 mm 0.00 in0.0 mm
06:57 PM 66.2°F19.0°C 58.7°F14.8°C 71% Calm Calm -- 29.65 in1004.1 mb 0.00 in0.0 mm 0.00 in0.0 mm 0.00 in0.0 mm
07:02 PM 65.5°F18.6°C 58.6°F14.8°C 73% Calm Calm -- 29.66 in1004.4 mb 0.00 in0.0 mm 0.00 in0.0 mm 0.00 in0.0 mm
07:07 PM 64.8°F18.2°C 59.0°F15.0°C 77% 4.5 mph NE7.2 kmh NE 6.9 mph11.1 kmh 29.67 in1004.7 mb 0.01 in0.3 mm 0.14 in3.6 mm 0.01 in0.3 mm
07:12 PM 62.8°F17.1°C 57.4°F14.1°C 78% 5.4 mph NE8.7 kmh NE 7.6 mph12.2 kmh 29.68 in1005.1 mb 0.02 in0.5 mm 0.14 in3.6 mm 0.02 in0.5 mm
07:17 PM 60.8°F16.0°C 56.3°F13.5°C 81% 3.8 mph E6.1 kmh E 6.9 mph11.1 kmh 29.68 in1005.1 mb 0.05 in1.3 mm 0.28 in7.1 mm 0.05 in1.3 mm
07:22 PM 59.4°F15.2°C 55.9°F13.3°C 85% 4.5 mph SW7.2 kmh SW 8.3 mph13.4 kmh 29.69 in1005.4 mb 0.06 in1.5 mm 0.14 in3.6 mm 0.06 in1.5 mm
07:27 PM 59.0°F15.0°C 56.3°F13.5°C 88% 3.1 mph E5.0 kmh E 6.9 mph11.1 kmh 29.68 in1005.1 mb 0.08 in2.0 mm 0.29 in7.4 mm 0.08 in2.0 mm
07:32 PM 58.3°F14.6°C 56.3°F13.5°C 91% 2.2 mph SE3.5 kmh SE 4.5 mph7.2 kmh 29.69 in1005.4 mb 0.09 in2.3 mm 0.13 in3.3 mm 0.09 in2.3 mm
07:37 PM 58.1°F14.5°C 56.6°F13.7°C 93% 3.8 mph S6.1 kmh S 7.6 mph12.2 kmh 29.69 in1005.4 mb 0.11 in2.8 mm 0.14 in3.6 mm 0.11 in2.8 mm
07:42 PM 57.9°F14.4°C 56.6°F13.7°C 94% 1.6 mph NW2.6 kmh NW 3.8 mph6.1 kmh 29.69 in1005.4 mb 0.12 in3.0 mm 0.14 in3.6 mm 0.12 in3.0 mm
07:47 PM 57.7°F14.3°C 56.7°F13.7°C 95% 2.2 mph SW3.5 kmh SW 3.8 mph6.1 kmh 29.68 in1005.1 mb 0.13 in3.3 mm 0.14 in3.6 mm 0.13 in3.3 mm
07:52 PM 57.7°F14.3°C 56.7°F13.7°C 95% 4.5 mph SE7.2 kmh SE 6.9 mph11.1 kmh 29.69 in1005.4 mb 0.14 in3.6 mm 0.14 in3.6 mm 0.14 in3.6 mm
07:57 PM 57.6°F14.2°C 56.7°F13.7°C 96% 3.8 mph NE6.1 kmh NE 6.0 mph9.7 kmh 29.69 in1005.4 mb 0.15 in3.8 mm 0.14 in3.6 mm 0.15 in3.8 mm
08:02 PM 57.2°F14.0°C 56.3°F13.5°C 96% 3.8 mph 6.1 kmh 6.0 mph9.7 kmh 29.69 in1005.4 mb 0.17 in4.3 mm 0.01 in0.3 mm 0.17 in4.3 mm
08:07 PM 57.0°F13.9°C 56.6°F13.7°C 98% 1.6 mph NE2.6 kmh NE 3.1 mph5.0 kmh 29.69 in1005.4 mb 0.19 in4.8 mm 0.29 in7.4 mm 0.20 in5.1 mm
08:12 PM 56.7°F13.7°C 56.2°F13.4°C 98% 1.6 mph NE2.6 kmh NE 3.1 mph5.0 kmh 29.68 in1005.1 mb 0.20 in5.1 mm 0.14 in3.6 mm 0.22 in5.6 mm
08:17 PM 56.7°F13.7°C 56.4°F13.6°C 99% Calm Calm 1.6 mph2.6 kmh 29.67 in1004.7 mb 0.21 in5.3 mm 0.14 in3.6 mm 0.26 in6.6 mm
08:22 PM 56.7°F13.7°C 56.4°F13.6°C 99% Calm Calm -- 29.67 in1004.7 mb 0.22 in5.6 mm 0.13 in3.3 mm 0.27 in6.9 mm
08:27 PM 56.7°F13.7°C 56.4°F13.6°C 99% Calm Calm -- 29.67 in1004.7 mb 0.20 in5.1 mm 0.00 in0.0 mm 0.28 in7.1 mm
08:32 PM 56.7°F13.7°C 56.4°F13.6°C 99% Calm Calm -- 29.66 in1004.4 mb 0.20 in5.1 mm 0.00 in0.0 mm 0.30 in7.6 mm
08:37 PM 56.7°F13.7°C 56.4°F13.6°C 99% Calm Calm -- 29.65 in1004.1 mb 0.19 in4.8 mm 0.00 in0.0 mm 0.30 in7.6 mm
08:42 PM 56.7°F13.7°C 56.4°F13.6°C 99% Calm Calm -- 29.65 in1004.1 mb 0.18 in4.6 mm 0.00 in0.0 mm 0.30 in7.6 mm
08:47 PM 56.7°F13.7°C 56.4°F13.6°C 99% Calm Calm -- 29.65 in1004.1 mb 0.17 in4.3 mm 0.00 in0.0 mm 0.30 in7.6 mm
08:52 PM 56.7°F13.7°C 56.4°F13.6°C 99% Calm Calm -- 29.66 in1004.4 mb 0.17 in4.3 mm 0.00 in0.0 mm 0.31 in7.9 mm
08:57 PM 56.7°F13.7°C 56.4°F13.6°C 99% Calm Calm -- 29.65 in1004.1 mb 0.15 in3.8 mm 0.00 in0.0 mm 0.31 in7.9 mm
09:02 PM 56.7°F13.7°C 56.4°F13.6°C 99% Calm Calm 1.6 mph2.6 kmh 29.65 in1004.1 mb 0.14 in3.6 mm 0.00 in0.0 mm 0.31 in7.9 mm
09:07 PM 56.7°F13.7°C 56.4°F13.6°C 99% Calm Calm -- 29.65 in1004.1 mb 0.11 in2.8 mm 0.00 in0.0 mm 0.31 in7.9 mm
09:12 PM 56.7°F13.7°C 56.4°F13.6°C 99% Calm Calm -- 29.65 in1004.1 mb 0.08 in2.0 mm 0.00 in0.0 mm 0.31 in7.9 mm
09:17 PM 56.7°F13.7°C 56.4°F13.6°C 99% Calm Calm -- 29.65 in1004.1 mb 0.05 in1.3 mm 0.00 in0.0 mm 0.31 in7.9 mm
09:22 PM 56.7°F13.7°C 56.4°F13.6°C 99% Calm Calm -- 29.65 in1004.1 mb 0.05 in1.3 mm 0.00 in0.0 mm 0.31 in7.9 mm
09:27 PM 56.7°F13.7°C 56.4°F13.6°C 99% Calm Calm -- 29.65 in1004.1 mb 0.02 in0.5 mm 0.00 in0.0 mm 0.31 in7.9 mm
09:32 PM 56.7°F13.7°C 56.4°F13.6°C 99% Calm Calm -- 29.65 in1004.1 mb 0.01 in0.3 mm 0.00 in0.0 mm 0.31 in7.9 mm
09:37 PM 56.7°F13.7°C 56.4°F13.6°C 99% Calm Calm -- 29.65 in1004.1 mb 0.01 in0.3 mm 0.00 in0.0 mm 0.31 in7.9 mm
09:42 PM 56.7°F13.7°C 56.4°F13.6°C 99% Calm Calm 1.6 mph2.6 kmh 29.66 in1004.4 mb 0.01 in0.3 mm 0.00 in0.0 mm 0.31 in7.9 mm
09:47 PM 57.0°F13.9°C 56.8°F13.8°C 99% 0.7 mph NE1.1 kmh NE 2.2 mph3.5 kmh 29.66 in1004.4 mb 0.01 in0.3 mm 0.00 in0.0 mm 0.31 in7.9 mm
09:52 PM 57.0°F13.9°C 56.8°F13.8°C 99% 2.2 mph NE3.5 kmh NE 4.5 mph7.2 kmh 29.67 in1004.7 mb 0.00 in0.0 mm 0.00 in0.0 mm 0.31 in7.9 mm
09:57 PM 57.0°F13.9°C 56.8°F13.8°C 99% 4.5 mph SW7.2 kmh SW 8.3 mph13.4 kmh 29.67 in1004.7 mb 0.00 in0.0 mm 0.00 in0.0 mm 0.31 in7.9 mm
10:02 PM 57.0°F13.9°C 56.8°F13.8°C 99% 1.6 mph NE2.6 kmh NE 4.5 mph7.2 kmh 29.67 in1004.7 mb 0.00 in0.0 mm 0.00 in0.0 mm 0.31 in7.9 mm
10:07 PM 57.2°F14.0°C 57.0°F13.9°C 99% 2.2 mph E3.5 kmh E 5.4 mph8.7 kmh 29.67 in1004.7 mb 0.00 in0.0 mm 0.00 in0.0 mm 0.31 in7.9 mm
10:12 PM 57.2°F14.0°C 57.0°F13.9°C 99% Calm Calm 1.6 mph2.6 kmh 29.67 in1004.7 mb 0.00 in0.0 mm 0.00 in0.0 mm 0.31 in7.9 mm
10:17 PM 57.4°F14.1°C 57.2°F14.0°C 99% 2.2 mph E3.5 kmh E 3.8 mph6.1 kmh 29.67 in1004.7 mb 0.00 in0.0 mm 0.00 in0.0 mm 0.31 in7.9 mm
10:22 PM 57.4°F14.1°C 57.2°F14.0°C 99% 3.1 mph NE5.0 kmh NE 5.4 mph8.7 kmh 29.67 in1004.7 mb 0.01 in0.3 mm 0.14 in3.6 mm 0.32 in8.1 mm
10:27 PM 57.4°F14.1°C 57.2°F14.0°C 99% 2.2 mph E3.5 kmh E 4.5 mph7.2 kmh 29.67 in1004.7 mb 0.02 in0.5 mm 0.14 in3.6 mm 0.33 in8.4 mm
10:32 PM 57.4°F14.1°C 57.2°F14.0°C 99% 1.6 mph 2.6 kmh 3.1 mph5.0 kmh 29.67 in1004.7 mb 0.06 in1.5 mm 0.42 in10.7 mm 0.37 in9.4 mm
10:37 PM 57.4°F14.1°C 57.2°F14.0°C 99% 1.6 mph 2.6 kmh 3.1 mph5.0 kmh 29.66 in1004.4 mb 0.07 in1.8 mm 0.14 in3.6 mm 0.38 in9.7 mm
10:42 PM 57.2°F14.0°C 57.0°F13.9°C 99% 0.7 mph E1.1 kmh E 3.1 mph5.0 kmh 29.66 in1004.4 mb 0.09 in2.3 mm 0.28 in7.1 mm 0.40 in10.2 mm
10:47 PM 57.0°F13.9°C 56.8°F13.8°C 99% Calm Calm 2.2 mph3.5 kmh 29.67 in1004.7 mb 0.11 in2.8 mm 0.14 in3.6 mm 0.41 in10.4 mm
10:52 PM 57.0°F13.9°C 56.8°F13.8°C 99% Calm Calm 1.6 mph2.6 kmh 29.65 in1004.1 mb 0.12 in3.0 mm 0.14 in3.6 mm 0.43 in10.9 mm
10:57 PM 57.0°F13.9°C 56.8°F13.8°C 99% Calm Calm 1.6 mph2.6 kmh 29.65 in1004.1 mb 0.13 in3.3 mm 0.14 in3.6 mm 0.44 in11.2 mm
11:02 PM 57.0°F13.9°C 56.8°F13.8°C 99% Calm Calm 2.2 mph3.5 kmh 29.65 in1004.1 mb 0.13 in3.3 mm 0.00 in0.0 mm 0.44 in11.2 mm
11:07 PM 57.0°F13.9°C 56.8°F13.8°C 99% Calm Calm -- 29.64 in1003.7 mb 0.13 in3.3 mm 0.00 in0.0 mm 0.44 in11.2 mm
11:12 PM 57.0°F13.9°C 56.8°F13.8°C 99% Calm Calm -- 29.64 in1003.7 mb 0.14 in3.6 mm 0.14 in3.6 mm 0.45 in11.4 mm
11:17 PM 57.0°F13.9°C 56.8°F13.8°C 99% Calm Calm 0.7 mph1.1 kmh 29.64 in1003.7 mb 0.14 in3.6 mm 0.00 in0.0 mm 0.45 in11.4 mm
11:22 PM 57.0°F13.9°C 56.8°F13.8°C 99% Calm Calm -- 29.64 in1003.7 mb 0.14 in3.6 mm 0.00 in0.0 mm 0.46 in11.7 mm
11:27 PM 57.0°F13.9°C 56.8°F13.8°C 99% Calm Calm -- 29.64 in1003.7 mb 0.13 in3.3 mm 0.00 in0.0 mm 0.46 in11.7 mm
11:32 PM 57.0°F13.9°C 56.8°F13.8°C 99% Calm Calm -- 29.64 in1003.7 mb 0.09 in2.3 mm 0.00 in0.0 mm 0.46 in11.7 mm
11:37 PM 56.7°F13.7°C 56.4°F13.6°C 99% Calm Calm -- 29.65 in1004.1 mb 0.08 in2.0 mm 0.00 in0.0 mm 0.46 in11.7 mm
11:42 PM 56.7°F13.7°C 56.4°F13.6°C 99% Calm Calm -- 29.64 in1003.7 mb 0.06 in1.5 mm 0.00 in0.0 mm 0.46 in11.7 mm
11:47 PM 56.7°F13.7°C 56.4°F13.6°C 99% Calm Calm -- 29.65 in1004.1 mb 0.05 in1.3 mm 0.00 in0.0 mm 0.46 in11.7 mm
11:52 PM 56.7°F13.7°C 56.4°F13.6°C 99% Calm Calm -- 29.64 in1003.7 mb 0.04 in1.0 mm 0.00 in0.0 mm 0.46 in11.7 mm
11:57 PM 56.7°F13.7°C 56.4°F13.6°C 99% Calm Calm -- 29.65 in1004.1 mb 0.02 in0.5 mm 0.00 in0.0 mm 0.46 in11.7 mm